createdAt,value
2023-04-25T00:00:47.176Z,65.20
2023-04-25T00:05:49.977Z,64.70
2023-04-25T00:10:50.788Z,64.73
2023-04-25T00:15:51.435Z,65.33
2023-04-25T00:20:53.416Z,64.79
2023-04-25T00:25:54.013Z,65.19
2023-04-25T00:30:54.640Z,64.68
2023-04-25T00:35:57.625Z,64.88
2023-04-25T00:40:58.623Z,65.76
2023-04-25T00:45:59.275Z,65.75
2023-04-25T00:51:01.837Z,66.22
2023-04-25T00:56:02.502Z,66.81
2023-04-25T01:01:03.514Z,66.83
2023-04-25T01:06:06.158Z,66.92
2023-04-25T01:11:07.045Z,67.01
2023-04-25T01:16:08.092Z,68.42
2023-04-25T01:21:11.519Z,67.29
2023-04-25T01:26:13.895Z,67.21
2023-04-25T01:31:15.097Z,66.94
2023-04-25T01:36:17.438Z,66.45
2023-04-25T01:41:18.951Z,66.57
2023-04-25T01:46:19.735Z,66.16
2023-04-25T01:51:21.782Z,66.15
2023-04-25T01:56:22.670Z,65.82
2023-04-25T02:01:23.527Z,65.79
2023-04-25T02:06:43.734Z,65.65
2023-04-25T02:11:46.168Z,65.90
2023-04-25T02:17:02.717Z,65.72
2023-04-25T02:22:06.402Z,66.07
2023-04-25T02:27:07.395Z,65.78
2023-04-25T02:32:09.512Z,65.92
2023-04-25T02:37:11.467Z,66.36
2023-04-25T02:42:12.172Z,66.71
2023-04-25T02:47:12.837Z,67.02
2023-04-25T02:52:15.098Z,67.56
2023-04-25T02:57:18.624Z,67.65
2023-04-25T03:02:19.289Z,68.39
2023-04-25T03:07:21.406Z,68.78
2023-04-25T03:12:23.218Z,68.59
2023-04-25T03:17:24.620Z,68.55
2023-04-25T03:22:26.737Z,68.40
2023-04-25T03:27:27.734Z,68.59
2023-04-25T03:32:28.439Z,68.84
2023-04-25T03:37:30.612Z,68.92
2023-04-25T03:42:31.401Z,68.01
2023-04-25T03:47:32.301Z,68.02
2023-04-25T03:52:34.660Z,68.48
2023-04-25T03:57:35.462Z,68.14
2023-04-25T04:02:37.587Z,68.77
2023-04-25T04:07:41.198Z,68.37
2023-04-25T04:12:44.372Z,68.42
2023-04-25T04:17:47.980Z,68.13
2023-04-25T04:22:50.534Z,69.47
2023-04-25T04:27:55.495Z,70.03
2023-04-25T04:33:03.137Z,69.01
2023-04-25T04:38:05.762Z,68.92
2023-04-25T04:43:09.856Z,67.68
2023-04-25T04:48:27.238Z,67.29
2023-04-25T04:53:49.835Z,68.09
2023-04-25T04:59:03.843Z,67.48
2023-04-25T05:04:14.520Z,66.44
2023-04-25T05:09:28.953Z,65.85
2023-04-25T05:15:01.837Z,66.19
2023-04-25T05:20:16.240Z,66.41
2023-04-25T05:25:36.305Z,65.43
2023-04-25T05:30:55.543Z,64.50
2023-04-25T05:36:02.748Z,64.18
2023-04-25T05:41:05.130Z,63.87
2023-04-25T05:46:32.416Z,62.81
2023-04-25T05:51:51.490Z,61.59
2023-04-25T05:57:08.524Z,61.45
2023-04-25T06:02:09.245Z,60.90
2023-04-25T06:07:12.087Z,60.57
2023-04-25T06:12:14.124Z,60.27
2023-04-25T06:17:14.842Z,59.28
2023-04-25T06:22:15.674Z,60.38
2023-04-25T06:27:17.768Z,59.95
2023-04-25T06:32:19.087Z,60.03
2023-04-25T06:37:20.004Z,57.99
2023-04-25T06:42:22.079Z,57.88
2023-04-25T06:47:32.911Z,58.06
2023-04-25T06:52:34.618Z,57.44
2023-04-25T06:57:37.065Z,57.17
2023-04-25T07:02:57.779Z,57.00
2023-04-25T07:07:58.956Z,55.92
2023-04-25T07:13:01.941Z,55.73
2023-04-25T07:18:03.129Z,54.60
2023-04-25T07:23:03.834Z,53.25
2023-04-25T07:28:06.427Z,52.52
2023-04-25T07:33:07.785Z,52.57
2023-04-25T07:38:08.967Z,52.42
2023-04-25T07:43:13.255Z,52.50
2023-04-25T07:48:21.695Z,52.83
2023-04-25T07:53:23.791Z,51.46
2023-04-25T07:58:34.102Z,51.96
2023-04-25T08:03:37.349Z,51.43
2023-04-25T08:08:42.974Z,50.43
2023-04-25T08:13:48.109Z,48.93
2023-04-25T08:18:49.268Z,50.30
2023-04-25T08:23:50.165Z,49.53
2023-04-25T08:29:03.088Z,50.35
2023-04-25T08:34:04.015Z,51.19
2023-04-25T08:39:08.990Z,52.59
2023-04-25T08:44:21.876Z,52.19
2023-04-25T08:49:23.046Z,53.33
2023-04-25T08:54:35.723Z,52.66
2023-04-25T08:59:41.583Z,52.02
2023-04-25T09:04:43.452Z,52.04
2023-04-25T09:09:44.184Z,53.41
2023-04-25T09:15:05.063Z,51.56
2023-04-25T09:20:21.362Z,50.92
2023-04-25T09:25:22.136Z,51.01
2023-04-25T09:30:33.340Z,52.63
2023-04-25T09:35:43.077Z,52.48
2023-04-25T09:40:50.646Z,53.97
2023-04-25T09:46:01.362Z,55.09
2023-04-25T09:51:08.686Z,55.42
2023-04-25T09:56:11.317Z,55.69
2023-04-25T10:01:14.172Z,55.56
2023-04-25T10:06:30.698Z,54.89
2023-04-25T10:11:32.845Z,52.34
2023-04-25T10:16:35.450Z,51.54
2023-04-25T10:21:39.103Z,53.10
2023-04-25T10:26:40.480Z,52.64
2023-04-25T10:31:48.697Z,53.22
2023-04-25T10:36:54.014Z,53.35
2023-04-25T10:41:57.189Z,53.44
2023-04-25T10:47:00.859Z,52.66
2023-04-25T10:52:19.767Z,52.38
2023-04-25T10:57:31.530Z,52.79
2023-04-25T11:02:33.935Z,54.46
2023-04-25T11:07:39.526Z,56.99
2023-04-25T11:12:40.355Z,58.23
2023-04-25T11:17:42.529Z,58.29
2023-04-25T11:22:46.006Z,59.61
2023-04-25T11:27:53.233Z,60.16
2023-04-25T11:32:55.905Z,60.52
2023-04-25T11:37:56.731Z,57.38
2023-04-25T11:42:57.412Z,57.96
2023-04-25T11:48:00.720Z,57.74
2023-04-25T11:53:01.560Z,55.24
2023-04-25T11:58:03.254Z,52.68
2023-04-25T12:03:05.819Z,52.28
2023-04-25T12:08:13.912Z,53.59
2023-04-25T12:13:22.690Z,52.29
2023-04-25T12:18:26.234Z,53.73
2023-04-25T12:23:28.766Z,55.41
2023-04-25T12:28:29.626Z,54.28
2023-04-25T12:33:33.147Z,51.38
2023-04-25T12:38:38.329Z,50.24
2023-04-25T12:43:39.076Z,49.72
2023-04-25T12:48:41.082Z,48.64
2023-04-25T12:53:41.783Z,45.63
2023-04-25T12:58:44.709Z,48.18
2023-04-25T13:03:46.987Z,49.66
2023-04-25T13:08:48.377Z,48.68
2023-04-25T13:13:49.231Z,50.62
2023-04-25T13:18:51.338Z,52.38
2023-04-25T13:23:52.416Z,53.53
2023-04-25T13:28:53.708Z,53.95
2023-04-25T13:33:55.748Z,55.64
2023-04-25T13:38:57.192Z,56.36
2023-04-25T13:43:58.040Z,55.44
2023-04-25T13:49:09.991Z,56.02
2023-04-25T13:54:13.560Z,53.61
2023-04-25T13:59:14.282Z,52.35
2023-04-25T14:04:16.392Z,52.76
2023-04-25T14:09:17.231Z,52.14
2023-04-25T14:14:17.999Z,52.08
2023-04-25T14:19:22.134Z,50.30
2023-04-25T14:24:23.142Z,49.29
2023-04-25T14:29:23.980Z,48.37
2023-04-25T14:34:26.117Z,48.06
2023-04-25T14:39:26.831Z,48.45
2023-04-25T14:44:27.503Z,46.98
2023-04-25T14:49:30.071Z,47.64
2023-04-25T14:54:30.772Z,46.97
2023-04-25T14:59:31.408Z,48.22
2023-04-25T15:04:33.630Z,48.18
2023-04-25T15:09:34.385Z,46.48
2023-04-25T15:14:35.482Z,44.95
2023-04-25T15:19:37.651Z,44.51
2023-04-25T15:24:38.433Z,44.88
2023-04-25T15:29:39.086Z,45.39
2023-04-25T15:34:41.133Z,45.04
2023-04-25T15:39:41.900Z,45.15
2023-04-25T15:44:42.580Z,45.23
2023-04-25T15:49:45.606Z,45.86
2023-04-25T15:54:46.254Z,45.83
2023-04-25T15:59:47.182Z,46.34
2023-04-25T16:04:49.994Z,46.54
2023-04-25T16:09:50.718Z,46.55
2023-04-25T16:14:52.541Z,45.62
2023-04-25T16:19:55.128Z,45.37
2023-04-25T16:24:55.953Z,45.65
2023-04-25T16:29:56.634Z,46.67
2023-04-25T16:34:59.082Z,43.41
2023-04-25T16:39:59.892Z,42.71
2023-04-25T16:45:00.612Z,39.33
2023-04-25T16:50:03.066Z,33.96
2023-04-25T16:55:03.771Z,35.88
2023-04-25T17:00:05.682Z,37.42
2023-04-25T17:05:08.794Z,39.32
2023-04-25T17:10:10.349Z,40.50
2023-04-25T17:15:11.753Z,41.51
2023-04-25T17:20:14.993Z,42.23
2023-04-25T17:25:15.730Z,40.54
2023-04-25T17:30:17.328Z,39.39
2023-04-25T17:35:19.614Z,40.87
2023-04-25T17:40:21.302Z,41.99
2023-04-25T17:45:22.131Z,43.55
2023-04-25T17:50:24.163Z,44.20
2023-04-25T17:55:25.001Z,43.61
2023-04-25T18:00:25.873Z,42.99
2023-04-25T18:05:29.235Z,43.29
2023-04-25T18:10:31.754Z,43.66
2023-04-25T18:15:32.676Z,44.32
2023-04-25T18:20:34.743Z,43.75
2023-04-25T18:25:35.720Z,44.61
2023-04-25T18:30:38.031Z,45.41
2023-04-25T18:35:45.111Z,45.93
2023-04-25T18:41:00.038Z,47.28
2023-04-25T18:46:11.205Z,47.70
2023-04-25T18:51:13.400Z,48.54
2023-04-25T18:56:15.072Z,48.49
2023-04-25T19:01:16.047Z,48.75
2023-04-25T19:06:18.307Z,49.09
2023-04-25T19:11:21.054Z,49.39
2023-04-25T19:16:22.444Z,50.11
2023-04-25T19:21:24.581Z,50.30
2023-04-25T19:26:25.625Z,51.54
2023-04-25T19:31:27.603Z,51.71
2023-04-25T19:36:29.697Z,51.82
2023-04-25T19:41:31.005Z,52.65
2023-04-25T19:46:32.283Z,52.53
2023-04-25T19:51:34.591Z,52.51
2023-04-25T19:56:35.550Z,53.76
2023-04-25T20:01:36.426Z,53.29
2023-04-25T20:06:38.494Z,53.80
2023-04-25T20:11:39.162Z,54.74
2023-04-25T20:16:40.058Z,53.64
2023-04-25T20:21:43.009Z,54.46
2023-04-25T20:26:43.874Z,54.64
2023-04-25T20:31:44.561Z,54.67
2023-04-25T20:36:46.683Z,53.76
2023-04-25T20:41:47.534Z,54.68
2023-04-25T20:46:48.239Z,54.68
2023-04-25T20:51:50.252Z,55.85
2023-04-25T20:56:51.003Z,55.78
2023-04-25T21:01:51.737Z,54.74
2023-04-25T21:06:53.742Z,55.67
2023-04-25T21:11:54.381Z,56.11
2023-04-25T21:16:55.336Z,55.76
2023-04-25T21:21:57.414Z,55.53
2023-04-25T21:26:58.078Z,54.82
2023-04-25T21:31:58.768Z,55.71
2023-04-25T21:37:00.774Z,56.32
2023-04-25T21:42:03.197Z,55.70
2023-04-25T21:47:04.639Z,55.97
2023-04-25T21:52:06.920Z,56.79
2023-04-25T21:57:07.567Z,56.36
2023-04-25T22:02:08.390Z,56.47
2023-04-25T22:07:11.046Z,56.48
2023-04-25T22:12:12.502Z,56.11
2023-04-25T22:17:13.144Z,55.87
2023-04-25T22:22:15.189Z,56.47
2023-04-25T22:27:15.865Z,56.79
2023-04-25T22:32:16.639Z,58.05
2023-04-25T22:37:18.669Z,57.94
2023-04-25T22:42:19.376Z,58.19
2023-04-25T22:47:21.654Z,58.97
2023-04-25T22:52:23.623Z,58.48
2023-04-25T22:57:24.319Z,59.10
2023-04-25T23:02:25.821Z,59.32
2023-04-25T23:07:29.217Z,60.35
2023-04-25T23:12:29.884Z,61.79
2023-04-25T23:17:30.556Z,62.11
2023-04-25T23:22:32.554Z,61.94
2023-04-25T23:27:33.198Z,61.81
2023-04-25T23:32:33.965Z,61.83
2023-04-25T23:37:37.139Z,61.75
2023-04-25T23:42:38.164Z,62.49
2023-04-25T23:47:38.961Z,62.42
2023-04-25T23:52:41.055Z,62.09
2023-04-25T23:57:44.234Z,62.64
